createdAt,value
2017-04-04T00:00:07.820Z,68.37
2017-04-04T00:01:06.391Z,68.13
2017-04-04T00:02:04.964Z,68.53
2017-04-04T00:03:03.458Z,68.45
2017-04-04T00:04:01.987Z,68.24
2017-04-04T00:05:00.532Z,68.46
2017-04-04T00:05:59.195Z,68.23
2017-04-04T00:06:57.804Z,68.71
2017-04-04T00:07:56.411Z,68.96
2017-04-04T00:08:55.037Z,68.73
2017-04-04T00:09:53.623Z,68.68
2017-04-04T00:10:52.144Z,68.74
2017-04-04T00:11:50.656Z,68.00
2017-04-04T00:12:49.180Z,67.78
2017-04-04T00:13:47.799Z,67.48
2017-04-04T00:14:46.419Z,67.35
2017-04-04T00:15:44.948Z,67.83
2017-04-04T00:16:43.468Z,68.32
2017-04-04T00:17:42.007Z,68.59
2017-04-04T00:18:40.554Z,69.01
2017-04-04T00:19:39.068Z,67.96
2017-04-04T00:20:37.571Z,67.69
2017-04-04T00:21:36.185Z,67.60
2017-04-04T00:22:34.767Z,68.35
2017-04-04T00:23:33.332Z,68.28
2017-04-04T00:24:31.847Z,68.56
2017-04-04T00:25:30.511Z,67.92
2017-04-04T00:26:29.012Z,68.10
2017-04-04T00:27:27.503Z,68.46
2017-04-04T00:28:26.058Z,68.41
2017-04-04T00:29:24.683Z,68.23
2017-04-04T00:30:23.352Z,68.52
2017-04-04T00:31:22.001Z,68.10
2017-04-04T00:32:20.627Z,68.26
2017-04-04T00:33:19.178Z,68.80
2017-04-04T00:34:17.706Z,68.85
2017-04-04T00:35:16.271Z,68.54
2017-04-04T00:36:14.847Z,68.28
2017-04-04T00:37:13.523Z,68.16
2017-04-04T00:38:12.044Z,68.36
2017-04-04T00:39:10.631Z,67.83
2017-04-04T00:40:09.220Z,68.43
2017-04-04T00:41:07.735Z,69.08
2017-04-04T00:42:06.247Z,69.64
2017-04-04T00:43:04.778Z,69.48
2017-04-04T00:44:03.356Z,70.10
2017-04-04T00:45:02.022Z,70.13
2017-04-04T00:46:00.579Z,69.35
2017-04-04T00:46:59.115Z,69.78
2017-04-04T00:47:57.608Z,69.24
2017-04-04T00:48:56.126Z,69.67
2017-04-04T00:49:54.778Z,69.82
2017-04-04T00:50:53.273Z,69.59
2017-04-04T00:51:51.779Z,69.54
2017-04-04T00:52:50.300Z,70.08
2017-04-04T00:53:48.851Z,70.28
2017-04-04T00:54:47.471Z,70.83
2017-04-04T00:55:46.080Z,71.02
2017-04-04T00:56:44.759Z,70.99
2017-04-04T00:57:43.443Z,72.05
2017-04-04T00:58:42.087Z,71.32
2017-04-04T00:59:40.570Z,71.26
2017-04-04T01:00:39.163Z,70.90
2017-04-04T01:01:37.704Z,70.53
2017-04-04T01:02:36.183Z,70.50
2017-04-04T01:03:34.723Z,70.79
2017-04-04T01:04:33.264Z,70.89
2017-04-04T01:05:31.760Z,71.08
2017-04-04T01:06:30.276Z,71.20
2017-04-04T01:07:28.800Z,70.66
2017-04-04T01:08:27.345Z,71.26
2017-04-04T01:09:26.030Z,71.32
2017-04-04T01:10:24.706Z,71.39
2017-04-04T01:11:23.278Z,71.05
2017-04-04T01:12:21.836Z,70.87
2017-04-04T01:13:20.426Z,70.73
2017-04-04T01:14:18.914Z,70.70
2017-04-04T01:15:17.444Z,71.27
2017-04-04T01:16:15.963Z,71.03
2017-04-04T01:17:14.531Z,71.12
2017-04-04T01:18:13.064Z,71.05
2017-04-04T01:19:11.554Z,70.94
2017-04-04T01:20:10.088Z,71.83
2017-04-04T01:21:08.614Z,71.63
2017-04-04T01:22:07.176Z,72.09
2017-04-04T01:23:05.683Z,71.64
2017-04-04T01:24:04.235Z,71.18
2017-04-04T01:25:02.711Z,70.66
2017-04-04T01:26:01.254Z,70.52
2017-04-04T01:26:59.819Z,70.16
2017-04-04T01:27:58.356Z,70.52
2017-04-04T01:28:56.871Z,71.00
2017-04-04T01:29:55.459Z,71.26
2017-04-04T01:30:53.988Z,70.73
2017-04-04T01:31:52.563Z,70.37
2017-04-04T01:32:51.063Z,70.22
2017-04-04T01:33:49.546Z,71.13
2017-04-04T01:34:48.087Z,70.72
2017-04-04T01:35:46.679Z,71.13
2017-04-04T01:36:45.339Z,70.80
2017-04-04T01:37:43.955Z,71.39
2017-04-04T01:38:42.584Z,71.30
2017-04-04T01:39:41.172Z,70.86
2017-04-04T01:40:39.835Z,71.50
2017-04-04T01:41:38.331Z,71.51
2017-04-04T01:42:36.875Z,71.42
2017-04-04T01:43:35.546Z,71.47
2017-04-04T01:44:34.100Z,71.99
2017-04-04T01:45:32.815Z,72.11
2017-04-04T01:46:31.318Z,72.41
2017-04-04T01:47:29.818Z,72.93
2017-04-04T01:48:28.315Z,72.47
2017-04-04T01:49:26.803Z,71.94
2017-04-04T01:50:25.363Z,71.74
2017-04-04T01:51:23.958Z,71.93
2017-04-04T01:52:22.470Z,71.30
2017-04-04T01:53:20.981Z,70.93
2017-04-04T01:54:19.647Z,71.40
2017-04-04T01:55:18.135Z,71.67
2017-04-04T01:56:16.727Z,71.70
2017-04-04T01:57:15.243Z,72.17
2017-04-04T01:58:13.767Z,72.22
2017-04-04T01:59:12.270Z,72.19
2017-04-04T02:00:10.890Z,72.18
2017-04-04T02:01:09.435Z,71.56
2017-04-04T02:02:07.934Z,71.60
2017-04-04T02:03:06.439Z,72.48
2017-04-04T02:04:04.991Z,72.50
2017-04-04T02:05:03.514Z,72.60
2017-04-04T02:06:02.028Z,72.80
2017-04-04T02:07:00.588Z,72.68
2017-04-04T02:07:59.067Z,72.34
2017-04-04T02:08:57.583Z,72.37
2017-04-04T02:09:56.143Z,72.43
2017-04-04T02:10:54.780Z,71.79
2017-04-04T02:11:53.563Z,71.85
2017-04-04T02:12:52.155Z,71.83
2017-04-04T02:13:50.691Z,71.96
2017-04-04T02:14:49.188Z,71.72
2017-04-04T02:15:47.682Z,71.99
2017-04-04T02:16:46.208Z,72.53
2017-04-04T02:17:44.693Z,72.93
2017-04-04T02:18:43.254Z,73.10
2017-04-04T02:19:41.827Z,72.77
2017-04-04T02:20:40.411Z,73.16
2017-04-04T02:21:38.900Z,73.62
2017-04-04T02:22:37.550Z,73.59
2017-04-04T02:23:36.074Z,73.42
2017-04-04T02:24:34.569Z,73.60
2017-04-04T02:25:33.143Z,74.04
2017-04-04T02:26:31.636Z,73.59
2017-04-04T02:27:30.119Z,73.00
2017-04-04T02:28:28.632Z,72.66
2017-04-04T02:29:27.299Z,71.64
2017-04-04T02:30:25.999Z,72.81
2017-04-04T02:31:24.619Z,72.53
2017-04-04T02:32:23.204Z,72.39
2017-04-04T02:33:21.787Z,72.99
2017-04-04T02:34:20.450Z,72.81
2017-04-04T02:35:19.128Z,72.85
2017-04-04T02:36:17.640Z,72.65
2017-04-04T02:37:16.262Z,72.71
2017-04-04T02:38:14.927Z,72.05
2017-04-04T02:39:13.455Z,71.97
2017-04-04T02:40:11.970Z,71.80
2017-04-04T02:41:10.480Z,72.01
2017-04-04T02:42:09.043Z,72.13
2017-04-04T02:43:07.557Z,72.53
2017-04-04T02:44:06.044Z,72.83
2017-04-04T02:45:04.629Z,73.31
2017-04-04T02:46:03.172Z,73.48
2017-04-04T02:47:01.739Z,73.51
2017-04-04T02:48:00.255Z,73.34
2017-04-04T02:48:58.803Z,73.36
2017-04-04T02:49:57.347Z,73.60
2017-04-04T02:50:55.922Z,73.79
2017-04-04T02:51:54.527Z,72.89
2017-04-04T02:52:53.030Z,72.63
2017-04-04T02:53:51.536Z,72.31
2017-04-04T02:54:50.082Z,72.38
2017-04-04T02:55:48.781Z,72.87
2017-04-04T02:56:47.355Z,72.36
2017-04-04T02:57:45.933Z,72.41
2017-04-04T02:58:44.492Z,72.90
2017-04-04T02:59:43.002Z,72.99
2017-04-04T03:00:41.567Z,73.39
2017-04-04T03:01:40.079Z,72.92
2017-04-04T03:02:38.575Z,73.50
2017-04-04T03:03:37.083Z,73.80
2017-04-04T03:04:35.595Z,73.78
2017-04-04T03:05:34.256Z,73.91
2017-04-04T03:06:32.824Z,73.36
2017-04-04T03:07:31.383Z,73.14
2017-04-04T03:08:29.901Z,72.59
2017-04-04T03:09:28.383Z,72.59
2017-04-04T03:10:26.927Z,72.63
2017-04-04T03:11:25.475Z,72.54
2017-04-04T03:12:23.963Z,72.76
2017-04-04T03:13:22.493Z,72.72
2017-04-04T03:14:21.063Z,72.50
2017-04-04T03:15:19.571Z,73.07
2017-04-04T03:16:18.075Z,72.91
2017-04-04T03:17:16.568Z,73.64
2017-04-04T03:18:15.143Z,73.56
2017-04-04T03:19:13.643Z,73.35
2017-04-04T03:20:12.140Z,72.56
2017-04-04T03:21:10.718Z,72.58
2017-04-04T03:22:09.239Z,72.21
2017-04-04T03:23:07.881Z,72.56
2017-04-04T03:24:06.555Z,72.61
2017-04-04T03:25:05.111Z,72.97
2017-04-04T03:26:03.635Z,73.16
2017-04-04T03:27:02.187Z,73.52
2017-04-04T03:28:00.719Z,73.47
2017-04-04T03:28:59.231Z,74.34
2017-04-04T03:29:57.799Z,74.36
2017-04-04T03:30:56.427Z,73.95
2017-04-04T03:31:54.939Z,73.94
2017-04-04T03:32:53.442Z,73.88
2017-04-04T03:33:52.029Z,73.41
2017-04-04T03:34:50.609Z,73.77
2017-04-04T03:35:49.264Z,73.75
2017-04-04T03:36:47.911Z,73.41
2017-04-04T03:37:46.411Z,73.69
2017-04-04T03:38:44.984Z,73.71
2017-04-04T03:39:43.578Z,73.76
2017-04-04T03:40:42.210Z,73.65
2017-04-04T03:41:40.829Z,73.29
2017-04-04T03:42:39.359Z,72.54
2017-04-04T03:43:37.919Z,72.26
2017-04-04T03:44:36.470Z,72.44
2017-04-04T03:45:34.980Z,72.99
2017-04-04T03:46:33.467Z,73.51
2017-04-04T03:47:32.011Z,73.64
2017-04-04T03:48:30.635Z,73.40
2017-04-04T03:49:29.268Z,73.64
2017-04-04T03:50:27.875Z,73.62
2017-04-04T03:51:26.499Z,74.47
2017-04-04T03:52:25.203Z,74.57
2017-04-04T03:53:23.723Z,74.75
2017-04-04T03:54:22.300Z,74.71
2017-04-04T03:55:20.900Z,74.75
2017-04-04T03:56:19.418Z,74.55
2017-04-04T03:57:17.910Z,73.85
2017-04-04T03:58:16.400Z,73.61
2017-04-04T03:59:14.906Z,73.25
2017-04-04T04:00:13.420Z,72.96
2017-04-04T04:01:12.010Z,72.32
2017-04-04T04:02:10.688Z,72.21
2017-04-04T04:03:09.276Z,72.85
2017-04-04T04:04:07.922Z,73.80
2017-04-04T04:05:06.599Z,74.37
2017-04-04T04:06:05.194Z,74.12
2017-04-04T04:07:03.843Z,74.43
2017-04-04T04:08:02.353Z,74.72
2017-04-04T04:09:00.858Z,74.51
2017-04-04T04:09:59.366Z,74.37
2017-04-04T04:10:57.951Z,74.49
2017-04-04T04:11:56.542Z,74.01
2017-04-04T04:12:55.040Z,73.48
2017-04-04T04:13:53.547Z,73.54
2017-04-04T04:14:52.082Z,73.55
2017-04-04T04:15:50.610Z,74.00
2017-04-04T04:16:49.131Z,73.79
2017-04-04T04:17:47.691Z,73.74
2017-04-04T04:18:46.327Z,74.06
2017-04-04T04:19:44.840Z,73.96
2017-04-04T04:20:43.347Z,74.06
2017-04-04T04:21:41.927Z,73.52
2017-04-04T04:22:40.535Z,72.49
2017-04-04T04:23:39.034Z,72.85
2017-04-04T04:24:37.582Z,73.44
2017-04-04T04:25:36.129Z,73.03
2017-04-04T04:26:35.099Z,73.02
2017-04-04T04:27:33.615Z,72.88
2017-04-04T04:28:32.139Z,73.19
2017-04-04T04:29:30.649Z,73.26
2017-04-04T04:30:29.445Z,73.93
2017-04-04T04:31:27.950Z,73.37
2017-04-04T04:32:26.471Z,73.53
2017-04-04T04:33:25.274Z,74.04
2017-04-04T04:34:23.808Z,73.80
2017-04-04T04:35:22.462Z,73.89
2017-04-04T04:36:21.054Z,74.53
2017-04-04T04:37:19.699Z,74.72
2017-04-04T04:38:18.270Z,74.74
2017-04-04T04:39:16.779Z,74.33
2017-04-04T04:40:15.291Z,74.22
2017-04-04T04:41:13.871Z,74.44
2017-04-04T04:42:12.372Z,73.92
2017-04-04T04:43:10.867Z,73.56
2017-04-04T04:44:09.358Z,73.15
2017-04-04T04:45:07.867Z,73.57
2017-04-04T04:46:06.478Z,73.82
2017-04-04T04:47:05.039Z,73.76
2017-04-04T04:48:03.663Z,74.11
2017-04-04T04:49:02.164Z,73.54
2017-04-04T04:50:00.666Z,73.53
2017-04-04T04:50:59.207Z,73.09
2017-04-04T04:51:57.767Z,73.81
2017-04-04T04:52:56.318Z,74.35
2017-04-04T04:53:54.859Z,74.15
2017-04-04T04:54:53.383Z,74.81
2017-04-04T04:55:51.864Z,75.08
2017-04-04T04:56:50.355Z,74.70
2017-04-04T04:57:48.879Z,74.43
2017-04-04T04:58:47.391Z,74.81
2017-04-04T04:59:45.895Z,74.38
2017-04-04T05:00:44.456Z,74.63
2017-04-04T05:01:43.004Z,74.48
2017-04-04T05:02:41.507Z,74.78
2017-04-04T05:03:40.034Z,75.01
2017-04-04T05:04:38.552Z,74.15
2017-04-04T05:05:37.480Z,74.92
2017-04-04T05:06:36.036Z,75.23
2017-04-04T05:07:35.091Z,75.64
2017-04-04T05:08:33.632Z,75.40
2017-04-04T05:09:32.170Z,75.24
2017-04-04T05:10:30.901Z,75.92
2017-04-04T05:11:29.486Z,75.74
2017-04-04T05:12:28.015Z,75.14
2017-04-04T05:13:26.606Z,75.99
2017-04-04T05:14:25.104Z,76.06
2017-04-04T05:15:24.079Z,75.87
2017-04-04T05:16:22.595Z,74.81
2017-04-04T05:17:21.159Z,74.54
2017-04-04T05:18:19.758Z,74.56
2017-04-04T05:19:18.389Z,74.49
2017-04-04T05:20:17.254Z,74.09
2017-04-04T05:21:15.883Z,73.07
2017-04-04T05:22:14.495Z,72.63
2017-04-04T05:23:13.275Z,72.82
2017-04-04T05:24:11.820Z,72.74
2017-04-04T05:25:10.567Z,72.61
2017-04-04T05:26:09.206Z,72.94
2017-04-04T05:27:07.796Z,72.96
2017-04-04T05:28:06.307Z,72.80
2017-04-04T05:29:04.800Z,73.53
2017-04-04T05:30:03.307Z,74.04
2017-04-04T05:31:01.920Z,73.78
2017-04-04T05:32:00.593Z,74.03
2017-04-04T05:32:59.150Z,74.26
2017-04-04T05:33:57.638Z,74.96
2017-04-04T05:34:56.159Z,74.87
2017-04-04T05:35:54.715Z,75.12
2017-04-04T05:36:53.243Z,74.64
2017-04-04T05:37:51.797Z,74.04
2017-04-04T05:38:50.422Z,74.09
2017-04-04T05:39:48.995Z,75.03
2017-04-04T05:40:47.667Z,75.90
2017-04-04T05:41:46.197Z,75.47
2017-04-04T05:42:44.720Z,74.98
2017-04-04T05:43:43.322Z,74.74
2017-04-04T05:44:41.903Z,74.74
2017-04-04T05:45:40.390Z,75.21
2017-04-04T05:46:38.894Z,75.29
2017-04-04T05:47:37.475Z,75.69
2017-04-04T05:48:36.011Z,75.83
2017-04-04T05:49:34.522Z,76.10
2017-04-04T05:50:33.123Z,76.33
2017-04-04T05:51:31.660Z,75.80
2017-04-04T05:52:30.189Z,75.42
2017-04-04T05:53:28.706Z,75.78
2017-04-04T05:54:27.229Z,75.57
2017-04-04T05:55:25.772Z,75.56
2017-04-04T05:56:24.329Z,75.44
2017-04-04T05:57:22.897Z,75.96
2017-04-04T05:58:21.495Z,75.64
2017-04-04T05:59:20.165Z,75.24
2017-04-04T06:00:18.720Z,74.82
2017-04-04T06:01:17.415Z,74.25
2017-04-04T06:02:16.056Z,73.58
2017-04-04T06:03:14.681Z,73.22
2017-04-04T06:04:13.231Z,73.05
2017-04-04T06:05:11.817Z,72.79
2017-04-04T06:06:10.468Z,72.60
2017-04-04T06:07:09.096Z,72.36
2017-04-04T06:08:07.776Z,72.66
2017-04-04T06:09:06.659Z,72.74
2017-04-04T06:10:05.193Z,72.38
2017-04-04T06:11:03.819Z,72.16
2017-04-04T06:12:02.331Z,71.84
2017-04-04T06:13:00.828Z,73.11
2017-04-04T06:13:59.372Z,73.55
2017-04-04T06:14:57.939Z,73.79
2017-04-04T06:15:56.446Z,74.03
2017-04-04T06:16:54.959Z,73.91
2017-04-04T06:17:53.490Z,73.58
2017-04-04T06:18:52.054Z,74.45
2017-04-04T06:19:50.619Z,73.61
2017-04-04T06:20:49.346Z,72.99
2017-04-04T06:21:47.934Z,72.83
2017-04-04T06:22:46.463Z,72.20
2017-04-04T06:23:45.119Z,72.19
2017-04-04T06:24:43.701Z,72.25
2017-04-04T06:25:42.224Z,71.84
2017-04-04T06:26:40.864Z,72.29
2017-04-04T06:27:39.378Z,72.06
2017-04-04T06:28:38.361Z,72.18
2017-04-04T06:29:37.003Z,71.90
2017-04-04T06:30:35.494Z,71.69
2017-04-04T06:31:34.080Z,72.55
2017-04-04T06:32:32.597Z,72.34
2017-04-04T06:33:31.108Z,73.15
2017-04-04T06:34:29.618Z,73.57
2017-04-04T06:35:28.166Z,73.98
2017-04-04T06:36:26.732Z,73.71
2017-04-04T06:37:25.274Z,74.09
2017-04-04T06:38:23.834Z,74.13
2017-04-04T06:39:22.336Z,73.97
2017-04-04T06:40:20.861Z,73.71
2017-04-04T06:41:19.415Z,73.01
2017-04-04T06:42:18.139Z,72.67
2017-04-04T06:43:16.722Z,72.35
2017-04-04T06:44:15.347Z,71.44
2017-04-04T06:45:13.939Z,71.23
2017-04-04T06:46:12.453Z,71.46
2017-04-04T06:47:10.967Z,71.30
2017-04-04T06:48:09.558Z,71.27
2017-04-04T06:49:08.107Z,70.84
2017-04-04T06:50:06.812Z,71.12
2017-04-04T06:51:05.406Z,70.72
2017-04-04T06:52:04.051Z,70.45
2017-04-04T06:53:02.706Z,70.52
2017-04-04T06:54:01.235Z,70.58
2017-04-04T06:54:59.770Z,70.59
2017-04-04T06:55:58.291Z,70.60
2017-04-04T06:56:56.818Z,70.62
2017-04-04T06:57:55.430Z,71.01
2017-04-04T06:58:53.923Z,71.15
2017-04-04T06:59:52.471Z,70.74
2017-04-04T07:00:50.991Z,70.85
2017-04-04T07:01:49.813Z,71.04
2017-04-04T07:02:49.167Z,70.39
2017-04-04T07:03:48.286Z,70.28
2017-04-04T07:04:47.168Z,69.80
2017-04-04T07:05:45.783Z,69.66
2017-04-04T07:06:44.271Z,69.39
2017-04-04T07:07:42.843Z,70.20
2017-04-04T07:08:41.366Z,70.59
2017-04-04T07:09:39.913Z,70.51
2017-04-04T07:10:38.435Z,70.08
2017-04-04T07:11:36.964Z,70.09
2017-04-04T07:12:35.476Z,70.34
2017-04-04T07:13:34.225Z,69.65
2017-04-04T07:14:32.800Z,69.36
2017-04-04T07:15:31.595Z,69.53
2017-04-04T07:16:30.166Z,69.52
2017-04-04T07:17:28.651Z,69.55
2017-04-04T07:18:27.231Z,69.40
2017-04-04T07:19:25.783Z,69.42
2017-04-04T07:20:24.918Z,69.60
2017-04-04T07:21:23.475Z,69.44
2017-04-04T07:22:22.043Z,69.92
2017-04-04T07:23:20.603Z,69.66
2017-04-04T07:24:19.363Z,69.14
2017-04-04T07:25:18.051Z,69.32
2017-04-04T07:26:16.691Z,69.21
2017-04-04T07:27:15.325Z,70.50
2017-04-04T07:28:13.911Z,70.41
2017-04-04T07:29:12.552Z,69.80
2017-04-04T07:30:11.139Z,69.58
2017-04-04T07:31:09.624Z,69.42
2017-04-04T07:32:08.183Z,69.45
2017-04-04T07:33:07.303Z,69.88
2017-04-04T07:34:05.873Z,69.55
2017-04-04T07:35:04.443Z,70.06
2017-04-04T07:36:02.947Z,69.97
2017-04-04T07:37:01.503Z,69.64
2017-04-04T07:38:00.041Z,69.95
2017-04-04T07:38:58.603Z,69.84
2017-04-04T07:39:57.219Z,69.98
2017-04-04T07:40:55.828Z,69.68
2017-04-04T07:41:54.359Z,69.18
2017-04-04T07:42:52.917Z,68.97
2017-04-04T07:43:51.466Z,68.46
2017-04-04T07:44:49.993Z,68.15
2017-04-04T07:45:48.519Z,68.21
2017-04-04T07:46:47.156Z,68.18
2017-04-04T07:47:45.687Z,67.94
2017-04-04T07:48:44.211Z,67.76
2017-04-04T07:49:42.811Z,67.67
2017-04-04T07:50:41.323Z,68.13
2017-04-04T07:51:39.831Z,67.38
2017-04-04T07:52:38.328Z,67.41
2017-04-04T07:53:36.967Z,67.29
2017-04-04T07:54:35.531Z,67.59
2017-04-04T07:55:34.109Z,67.82
2017-04-04T07:56:32.655Z,68.04
2017-04-04T07:57:31.261Z,67.91
2017-04-04T07:58:29.815Z,67.95
2017-04-04T07:59:28.342Z,67.92
2017-04-04T08:00:26.956Z,68.29
2017-04-04T08:01:25.527Z,67.67
2017-04-04T08:02:24.098Z,67.58
2017-04-04T08:03:22.791Z,67.64
2017-04-04T08:04:21.395Z,68.37
2017-04-04T08:05:19.947Z,67.90
2017-04-04T08:06:18.458Z,67.56
2017-04-04T08:07:17.004Z,67.13
2017-04-04T08:08:15.546Z,66.81
2017-04-04T08:09:14.138Z,66.74
2017-04-04T08:10:12.680Z,66.58
2017-04-04T08:11:11.200Z,66.38
2017-04-04T08:12:09.700Z,66.65
2017-04-04T08:13:08.199Z,67.02
2017-04-04T08:14:06.720Z,66.93
2017-04-04T08:15:05.316Z,67.62
2017-04-04T08:16:03.831Z,67.25
2017-04-04T08:17:02.368Z,66.94
2017-04-04T08:18:00.918Z,66.29
2017-04-04T08:18:59.431Z,66.25
2017-04-04T08:19:58.012Z,66.44
2017-04-04T08:20:56.523Z,66.60
2017-04-04T08:21:55.020Z,66.48
2017-04-04T08:22:53.543Z,66.83
2017-04-04T08:23:52.051Z,66.66
2017-04-04T08:24:50.619Z,65.83
2017-04-04T08:25:49.143Z,65.68
2017-04-04T08:26:47.783Z,65.22
2017-04-04T08:27:46.419Z,65.23
2017-04-04T08:28:45.072Z,65.05
2017-04-04T08:29:43.682Z,64.90
2017-04-04T08:30:42.327Z,64.56
2017-04-04T08:31:40.912Z,64.05
2017-04-04T08:32:39.447Z,63.61
2017-04-04T08:33:37.903Z,63.61
2017-04-04T08:34:36.431Z,64.21
2017-04-04T08:35:34.985Z,63.86
2017-04-04T08:36:33.483Z,64.37
2017-04-04T08:37:31.991Z,64.11
2017-04-04T08:38:30.531Z,64.02
2017-04-04T08:39:29.062Z,64.21
2017-04-04T08:40:27.659Z,63.85
2017-04-04T08:41:26.264Z,63.92
2017-04-04T08:42:24.859Z,64.18
2017-04-04T08:43:23.371Z,64.00
2017-04-04T08:44:21.896Z,63.79
2017-04-04T08:45:20.434Z,63.86
2017-04-04T08:46:18.939Z,63.96
2017-04-04T08:47:17.459Z,63.70
2017-04-04T08:48:16.100Z,63.48
2017-04-04T08:49:14.717Z,62.18
2017-04-04T08:50:13.324Z,62.28
2017-04-04T08:51:11.953Z,62.51
2017-04-04T08:52:10.579Z,62.27
2017-04-04T08:53:09.486Z,62.63
2017-04-04T08:54:08.071Z,62.64
2017-04-04T08:55:06.577Z,61.98
2017-04-04T08:56:05.196Z,62.22
2017-04-04T08:57:03.812Z,62.16
2017-04-04T08:58:02.415Z,61.56
2017-04-04T08:59:01.080Z,61.18
2017-04-04T08:59:59.758Z,61.30
2017-04-04T09:00:58.261Z,61.45
2017-04-04T09:01:56.819Z,60.88
2017-04-04T09:02:55.363Z,59.79
2017-04-04T09:03:53.911Z,60.24
2017-04-04T09:04:52.380Z,60.13
2017-04-04T09:05:50.891Z,60.39
2017-04-04T09:06:49.416Z,60.56
2017-04-04T09:07:47.994Z,59.89
2017-04-04T09:08:46.538Z,60.24
2017-04-04T09:09:45.068Z,59.04
2017-04-04T09:10:43.630Z,58.76
2017-04-04T09:11:42.111Z,59.28
2017-04-04T09:12:40.603Z,59.34
2017-04-04T09:13:39.102Z,59.38
2017-04-04T09:14:37.604Z,58.69
2017-04-04T09:15:36.155Z,58.20
2017-04-04T09:16:34.695Z,58.14
2017-04-04T09:17:33.205Z,58.41
2017-04-04T09:18:31.736Z,58.24
2017-04-04T09:19:30.239Z,58.60
2017-04-04T09:20:28.952Z,58.80
2017-04-04T09:21:27.475Z,59.14
2017-04-04T09:22:25.980Z,58.47
2017-04-04T09:23:24.487Z,58.73
2017-04-04T09:24:23.059Z,58.68
2017-04-04T09:25:21.695Z,57.93
2017-04-04T09:26:20.271Z,58.38
2017-04-04T09:27:18.852Z,57.00
2017-04-04T09:28:17.471Z,56.98
2017-04-04T09:29:16.232Z,56.45
2017-04-04T09:30:14.830Z,56.34
2017-04-04T09:31:13.410Z,56.05
2017-04-04T09:32:11.966Z,56.36
2017-04-04T09:33:10.451Z,56.61
2017-04-04T09:34:09.019Z,56.22
2017-04-04T09:35:07.593Z,56.51
2017-04-04T09:36:06.147Z,56.83
2017-04-04T09:37:04.712Z,56.13
2017-04-04T09:38:03.282Z,55.27
2017-04-04T09:39:01.800Z,55.92
2017-04-04T09:40:00.322Z,56.12
2017-04-04T09:40:58.860Z,56.28
2017-04-04T09:41:57.365Z,56.19
2017-04-04T09:42:55.850Z,55.17
2017-04-04T09:43:54.364Z,55.36
2017-04-04T09:44:52.879Z,55.02
2017-04-04T09:45:51.375Z,55.24
2017-04-04T09:46:49.992Z,55.32
2017-04-04T09:47:48.527Z,53.43
2017-04-04T09:48:47.019Z,53.55
2017-04-04T09:49:45.608Z,53.58
2017-04-04T09:50:44.198Z,52.38
2017-04-04T09:51:42.699Z,51.38
2017-04-04T09:52:41.241Z,50.36
2017-04-04T09:53:39.836Z,51.08
2017-04-04T09:54:38.343Z,50.85
2017-04-04T09:55:36.895Z,51.10
2017-04-04T09:56:35.410Z,51.94
2017-04-04T09:57:33.964Z,50.79
2017-04-04T09:58:32.580Z,51.77
2017-04-04T09:59:31.108Z,50.42
2017-04-04T10:00:29.657Z,51.11
2017-04-04T10:01:28.191Z,51.09
2017-04-04T10:02:26.741Z,51.65
2017-04-04T10:03:25.279Z,51.03
2017-04-04T10:04:23.787Z,50.89
2017-04-04T10:05:22.343Z,50.79
2017-04-04T10:06:20.839Z,50.83
2017-04-04T10:07:19.463Z,50.56
2017-04-04T10:08:18.015Z,50.55
2017-04-04T10:09:16.723Z,50.08
2017-04-04T10:10:15.332Z,50.48
2017-04-04T10:11:14.011Z,50.31
2017-04-04T10:12:12.684Z,49.93
2017-04-04T10:13:11.307Z,50.40
2017-04-04T10:14:10.231Z,50.19
2017-04-04T10:15:08.794Z,50.12
2017-04-04T10:16:07.334Z,50.34
2017-04-04T10:17:05.920Z,50.16
2017-04-04T10:18:04.582Z,50.18
2017-04-04T10:19:03.140Z,49.29
2017-04-04T10:20:01.711Z,49.85
2017-04-04T10:21:00.236Z,50.41
2017-04-04T10:21:58.823Z,50.00
2017-04-04T10:22:57.343Z,49.78
2017-04-04T10:23:55.864Z,49.62
2017-04-04T10:24:54.475Z,49.84
2017-04-04T10:25:53.141Z,48.78
2017-04-04T10:26:51.640Z,48.92
2017-04-04T10:27:50.147Z,48.96
2017-04-04T10:28:48.687Z,49.28
2017-04-04T10:29:47.307Z,48.54
2017-04-04T10:30:45.860Z,48.51
2017-04-04T10:31:44.451Z,48.80
2017-04-04T10:32:43.163Z,48.99
2017-04-04T10:33:41.770Z,49.77
2017-04-04T10:34:40.356Z,48.78
2017-04-04T10:35:38.862Z,47.96
2017-04-04T10:36:37.419Z,47.74
2017-04-04T10:37:35.928Z,47.20
2017-04-04T10:38:34.467Z,46.50
2017-04-04T10:39:33.004Z,45.38
2017-04-04T10:40:31.563Z,45.40
2017-04-04T10:41:30.078Z,44.52
2017-04-04T10:42:28.578Z,45.61
2017-04-04T10:43:27.195Z,46.33
2017-04-04T10:44:25.795Z,45.28
2017-04-04T10:45:24.453Z,45.17
2017-04-04T10:46:23.265Z,44.61
2017-04-04T10:47:21.825Z,43.11
2017-04-04T10:48:20.356Z,43.46
2017-04-04T10:49:18.972Z,42.78
2017-04-04T10:50:17.506Z,41.50
2017-04-04T10:51:16.034Z,40.45
2017-04-04T10:52:14.568Z,39.21
2017-04-04T10:53:13.091Z,39.43
2017-04-04T10:54:11.635Z,38.81
2017-04-04T10:55:10.195Z,39.59
2017-04-04T10:56:08.772Z,40.47
2017-04-04T10:57:07.359Z,40.41
2017-04-04T10:58:06.066Z,40.51
2017-04-04T10:59:04.670Z,39.34
2017-04-04T11:00:03.175Z,38.52
2017-04-04T11:01:01.819Z,38.25
2017-04-04T11:02:00.520Z,37.67
2017-04-04T11:02:59.076Z,39.14
2017-04-04T11:03:57.663Z,38.51
2017-04-04T11:04:56.189Z,38.18
2017-04-04T11:05:54.739Z,37.18
2017-04-04T11:06:53.408Z,37.94
2017-04-04T11:07:51.990Z,37.58
2017-04-04T11:08:50.708Z,37.09
2017-04-04T11:09:49.252Z,36.03
2017-04-04T11:10:47.878Z,36.76
2017-04-04T11:11:46.571Z,35.43
2017-04-04T11:12:45.191Z,33.55
2017-04-04T11:13:43.764Z,33.91
2017-04-04T11:14:42.295Z,34.00
2017-04-04T11:15:40.863Z,34.47
2017-04-04T11:16:39.399Z,34.43
2017-04-04T11:17:38.086Z,35.70
2017-04-04T11:18:36.673Z,35.63
2017-04-04T11:19:35.267Z,34.90
2017-04-04T11:20:33.896Z,35.38
2017-04-04T11:21:32.503Z,33.82
2017-04-04T11:22:31.058Z,34.25
2017-04-04T11:23:29.555Z,34.59
2017-04-04T11:24:28.079Z,35.28
2017-04-04T11:25:26.673Z,35.86
2017-04-04T11:26:25.255Z,36.87
2017-04-04T11:27:23.767Z,37.50
2017-04-04T11:28:22.307Z,37.89
2017-04-04T11:29:20.876Z,37.46
2017-04-04T11:30:19.444Z,36.43
2017-04-04T11:31:17.943Z,35.26
2017-04-04T11:32:16.467Z,35.69
2017-04-04T11:33:15.067Z,34.12
2017-04-04T11:34:13.687Z,33.80
2017-04-04T11:35:12.243Z,33.94
2017-04-04T11:36:10.839Z,31.99
2017-04-04T11:37:09.355Z,31.46
2017-04-04T11:38:07.900Z,32.26
2017-04-04T11:39:06.686Z,30.64
2017-04-04T11:40:05.272Z,29.89
2017-04-04T11:41:03.950Z,30.35
2017-04-04T11:42:02.564Z,31.43
2017-04-04T11:43:01.074Z,31.62
2017-04-04T11:43:59.595Z,31.96
2017-04-04T11:44:58.119Z,31.70
2017-04-04T11:45:56.727Z,32.62
2017-04-04T11:46:55.358Z,32.22
2017-04-04T11:47:54.038Z,32.22
2017-04-04T11:48:52.602Z,32.28
2017-04-04T11:49:51.248Z,32.22
2017-04-04T11:50:49.773Z,32.62
2017-04-04T11:51:48.263Z,32.72
2017-04-04T11:52:46.807Z,33.75
2017-04-04T11:53:45.329Z,34.52
2017-04-04T11:54:44.006Z,34.47
2017-04-04T11:55:42.671Z,36.00
2017-04-04T11:56:41.497Z,36.08
2017-04-04T11:57:40.103Z,35.84
2017-04-04T11:58:38.592Z,36.10
2017-04-04T11:59:37.106Z,35.73
2017-04-04T12:00:35.682Z,35.74
2017-04-04T12:01:34.183Z,35.45
2017-04-04T12:02:32.752Z,34.97
2017-04-04T12:03:31.298Z,33.85
2017-04-04T12:04:29.943Z,33.88
2017-04-04T12:05:28.451Z,32.06
2017-04-04T12:06:26.978Z,30.56
2017-04-04T12:07:25.471Z,30.25
2017-04-04T12:08:24.029Z,29.91
2017-04-04T12:09:22.549Z,29.27
2017-04-04T12:10:21.060Z,30.39
2017-04-04T12:11:19.592Z,30.94
2017-04-04T12:12:18.132Z,32.34
2017-04-04T12:13:16.836Z,33.00
2017-04-04T12:14:15.363Z,33.87
2017-04-04T12:15:13.936Z,33.28
2017-04-04T12:16:12.477Z,33.80
2017-04-04T12:17:11.015Z,34.37
2017-04-04T12:18:09.599Z,34.60
2017-04-04T12:19:08.143Z,33.72
2017-04-04T12:20:06.751Z,33.29
2017-04-04T12:21:05.281Z,33.15
2017-04-04T12:22:03.808Z,32.28
2017-04-04T12:23:02.347Z,31.18
2017-04-04T12:24:00.949Z,31.13
2017-04-04T12:24:59.563Z,31.68
2017-04-04T12:25:58.147Z,31.57
2017-04-04T12:26:56.631Z,31.57
2017-04-04T12:27:55.199Z,30.96
2017-04-04T12:28:53.713Z,30.20
2017-04-04T12:29:52.241Z,29.70
2017-04-04T12:30:50.746Z,29.02
2017-04-04T12:31:49.263Z,28.07
2017-04-04T12:32:47.808Z,28.47
2017-04-04T12:33:46.410Z,28.40